sensor_id;sensor_type;location;lat;lon;timestamp;pressure;altitude;pressure_sealevel;temperature;humidity
47636;BME280;33364;50.766;15.338;2024-02-26T00:01:39;93722.03;;;0.14;96.05
47636;BME280;33364;50.766;15.338;2024-02-26T00:04:04;93713.69;;;0.12;96.12
47636;BME280;33364;50.766;15.338;2024-02-26T00:06:31;93715.28;;;0.18;96.41
47636;BME280;33364;50.766;15.338;2024-02-26T00:08:57;93713.22;;;0.15;96.40
47636;BME280;33364;50.766;15.338;2024-02-26T00:11:23;93712.94;;;0.16;96.34
47636;BME280;33364;50.766;15.338;2024-02-26T00:13:48;93706.94;;;0.11;96.23
47636;BME280;33364;50.766;15.338;2024-02-26T00:16:14;93698.13;;;0.12;96.13
47636;BME280;33364;50.766;15.338;2024-02-26T00:18:40;93705.13;;;0.11;96.52
47636;BME280;33364;50.766;15.338;2024-02-26T00:21:06;93703.31;;;0.12;96.44
47636;BME280;33364;50.766;15.338;2024-02-26T00:23:31;93700.97;;;0.05;96.32
47636;BME280;33364;50.766;15.338;2024-02-26T00:25:58;93697.84;;;0.08;96.28
47636;BME280;33364;50.766;15.338;2024-02-26T00:28:23;93697.81;;;0.03;96.11
47636;BME280;33364;50.766;15.338;2024-02-26T00:30:50;93699.41;;;0.09;96.02
47636;BME280;33364;50.766;15.338;2024-02-26T00:33:21;93705.84;;;0.02;95.85
47636;BME280;33364;50.766;15.338;2024-02-26T00:35:48;93716.38;;;-0.15;95.72
47636;BME280;33364;50.766;15.338;2024-02-26T00:38:14;93713.50;;;-0.19;95.90
47636;BME280;33364;50.766;15.338;2024-02-26T00:40:40;93708.34;;;-0.14;96.53
47636;BME280;33364;50.766;15.338;2024-02-26T00:43:09;93706.25;;;-0.22;96.27
47636;BME280;33364;50.766;15.338;2024-02-26T00:45:35;93705.97;;;-0.20;96.56
47636;BME280;33364;50.766;15.338;2024-02-26T00:48:00;93703.41;;;-0.15;96.73
47636;BME280;33364;50.766;15.338;2024-02-26T00:50:33;93702.69;;;-0.11;96.92
47636;BME280;33364;50.766;15.338;2024-02-26T00:53:02;93696.75;;;-0.06;96.85
47636;BME280;33364;50.766;15.338;2024-02-26T00:55:28;93700.13;;;-0.06;96.84
47636;BME280;33364;50.766;15.338;2024-02-26T00:57:53;93695.94;;;-0.12;96.35
47636;BME280;33364;50.766;15.338;2024-02-26T01:00:19;93697.22;;;-0.09;96.26
47636;BME280;33364;50.766;15.338;2024-02-26T01:02:45;93698.28;;;-0.05;96.35
47636;BME280;33364;50.766;15.338;2024-02-26T01:05:13;93695.44;;;-0.04;96.32
47636;BME280;33364;50.766;15.338;2024-02-26T01:07:39;93693.63;;;-0.03;96.43
47636;BME280;33364;50.766;15.338;2024-02-26T01:10:08;93691.31;;;0.00;96.36
47636;BME280;33364;50.766;15.338;2024-02-26T01:12:34;93696.00;;;0.04;96.48
47636;BME280;33364;50.766;15.338;2024-02-26T01:15:04;93693.91;;;0.00;96.23
47636;BME280;33364;50.766;15.338;2024-02-26T01:17:30;93684.09;;;0.08;96.34
47636;BME280;33364;50.766;15.338;2024-02-26T01:19:56;93683.00;;;-0.02;96.09
47636;BME280;33364;50.766;15.338;2024-02-26T01:22:21;93687.41;;;-0.02;96.13
47636;BME280;33364;50.766;15.338;2024-02-26T01:24:48;93677.81;;;-0.02;96.46
47636;BME280;33364;50.766;15.338;2024-02-26T01:27:13;93681.44;;;-0.03;96.21
47636;BME280;33364;50.766;15.338;2024-02-26T01:29:41;93679.38;;;-0.06;96.21
47636;BME280;33364;50.766;15.338;2024-02-26T01:32:07;93680.38;;;-0.07;96.29
47636;BME280;33364;50.766;15.338;2024-02-26T01:34:33;93675.13;;;-0.17;96.03
47636;BME280;33364;50.766;15.338;2024-02-26T01:36:59;93665.25;;;-0.20;95.75
47636;BME280;33364;50.766;15.338;2024-02-26T01:39:25;93673.00;;;-0.25;95.84
47636;BME280;33364;50.766;15.338;2024-02-26T01:41:50;93672.47;;;-0.27;95.58
47636;BME280;33364;50.766;15.338;2024-02-26T01:44:16;93667.28;;;-0.27;95.85
47636;BME280;33364;50.766;15.338;2024-02-26T01:46:42;93669.63;;;-0.25;95.74
47636;BME280;33364;50.766;15.338;2024-02-26T01:49:12;93672.47;;;-0.27;95.55
47636;BME280;33364;50.766;15.338;2024-02-26T01:51:39;93669.31;;;-0.34;95.66
47636;BME280;33364;50.766;15.338;2024-02-26T01:54:06;93670.88;;;-0.33;95.90
47636;BME280;33364;50.766;15.338;2024-02-26T01:56:33;93669.84;;;-0.32;96.01
47636;BME280;33364;50.766;15.338;2024-02-26T01:59:01;93667.25;;;-0.32;96.00
47636;BME280;33364;50.766;15.338;2024-02-26T02:01:31;93670.38;;;-0.30;95.66
47636;BME280;33364;50.766;15.338;2024-02-26T02:03:59;93670.09;;;-0.33;95.63
47636;BME280;33364;50.766;15.338;2024-02-26T02:06:25;93660.00;;;-0.30;95.71
47636;BME280;33364;50.766;15.338;2024-02-26T02:08:52;93666.22;;;-0.31;95.65
47636;BME280;33364;50.766;15.338;2024-02-26T02:11:18;93663.31;;;-0.39;95.68
47636;BME280;33364;50.766;15.338;2024-02-26T02:13:44;93666.13;;;-0.41;95.51
47636;BME280;33364;50.766;15.338;2024-02-26T02:16:10;93669.72;;;-0.47;95.76
47636;BME280;33364;50.766;15.338;2024-02-26T02:18:36;93672.31;;;-0.47;95.64
47636;BME280;33364;50.766;15.338;2024-02-26T02:21:02;93670.75;;;-0.53;95.63
47636;BME280;33364;50.766;15.338;2024-02-26T02:23:28;93663.47;;;-0.51;95.59
47636;BME280;33364;50.766;15.338;2024-02-26T02:25:56;93668.66;;;-0.51;95.54
47636;BME280;33364;50.766;15.338;2024-02-26T02:28:23;93662.97;;;-0.53;95.65
47636;BME280;33364;50.766;15.338;2024-02-26T02:30:50;93657.50;;;-0.52;95.60
47636;BME280;33364;50.766;15.338;2024-02-26T02:33:16;93664.00;;;-0.54;95.53
47636;BME280;33364;50.766;15.338;2024-02-26T02:35:42;93658.25;;;-0.56;95.51
47636;BME280;33364;50.766;15.338;2024-02-26T02:38:08;93655.16;;;-0.58;95.24
47636;BME280;33364;50.766;15.338;2024-02-26T02:40:34;93655.63;;;-0.61;95.46
47636;BME280;33364;50.766;15.338;2024-02-26T02:43:00;93653.03;;;-0.61;95.69
47636;BME280;33364;50.766;15.338;2024-02-26T02:45:28;93653.03;;;-0.61;95.73
47636;BME280;33364;50.766;15.338;2024-02-26T02:47:54;93653.31;;;-0.58;95.61
47636;BME280;33364;50.766;15.338;2024-02-26T02:50:19;93649.91;;;-0.63;95.63
47636;BME280;33364;50.766;15.338;2024-02-26T02:52:46;93646.50;;;-0.69;95.57
47636;BME280;33364;50.766;15.338;2024-02-26T02:55:12;93643.19;;;-0.64;95.86
47636;BME280;33364;50.766;15.338;2024-02-26T02:57:38;93643.19;;;-0.64;95.76
47636;BME280;33364;50.766;15.338;2024-02-26T03:00:09;93639.84;;;-0.60;95.69
47636;BME280;33364;50.766;15.338;2024-02-26T03:02:35;93634.63;;;-0.65;95.47
47636;BME280;33364;50.766;15.338;2024-02-26T03:05:04;93634.84;;;-0.66;95.64
47636;BME280;33364;50.766;15.338;2024-02-26T03:07:30;93636.16;;;-0.69;95.72
47636;BME280;33364;50.766;15.338;2024-02-26T03:09:55;93639.19;;;-0.77;95.48
47636;BME280;33364;50.766;15.338;2024-02-26T03:12:22;93630.81;;;-0.84;95.69
47636;BME280;33364;50.766;15.338;2024-02-26T03:14:47;93639.88;;;-0.87;95.84
47636;BME280;33364;50.766;15.338;2024-02-26T03:17:13;93635.53;;;-0.81;95.97
47636;BME280;33364;50.766;15.338;2024-02-26T03:19:39;93638.34;;;-0.82;95.82
47636;BME280;33364;50.766;15.338;2024-02-26T03:22:05;93634.19;;;-0.83;95.69
47636;BME280;33364;50.766;15.338;2024-02-26T03:24:30;93634.16;;;-0.89;95.78
47636;BME280;33364;50.766;15.338;2024-02-26T03:26:56;93636.22;;;-0.91;95.64
47636;BME280;33364;50.766;15.338;2024-02-26T03:29:22;93634.69;;;-0.87;95.99
47636;BME280;33364;50.766;15.338;2024-02-26T03:31:48;93642.50;;;-0.81;95.95
47636;BME280;33364;50.766;15.338;2024-02-26T03:34:14;93641.16;;;-0.89;95.96
47636;BME280;33364;50.766;15.338;2024-02-26T03:36:41;93645.34;;;-0.83;95.94
47636;BME280;33364;50.766;15.338;2024-02-26T03:39:06;93653.63;;;-0.86;95.84
47636;BME280;33364;50.766;15.338;2024-02-26T03:41:34;93648.69;;;-0.88;95.83
47636;BME280;33364;50.766;15.338;2024-02-26T03:44:00;93652.28;;;-0.89;95.82
47636;BME280;33364;50.766;15.338;2024-02-26T03:46:26;93646.38;;;-0.84;96.14
47636;BME280;33364;50.766;15.338;2024-02-26T03:48:52;93647.16;;;-0.83;96.06
47636;BME280;33364;50.766;15.338;2024-02-26T03:51:17;93654.97;;;-0.78;96.40
47636;BME280;33364;50.766;15.338;2024-02-26T03:53:43;93650.84;;;-0.79;96.18
47636;BME280;33364;50.766;15.338;2024-02-26T03:56:11;93659.63;;;-0.80;96.10
47636;BME280;33364;50.766;15.338;2024-02-26T03:58:37;93664.00;;;-0.86;95.97
47636;BME280;33364;50.766;15.338;2024-02-26T04:01:03;93667.28;;;-0.96;95.56
47636;BME280;33364;50.766;15.338;2024-02-26T04:03:28;93667.78;;;-0.94;95.51
47636;BME280;33364;50.766;15.338;2024-02-26T04:05:57;93676.63;;;-0.90;96.03
47636;BME280;33364;50.766;15.338;2024-02-26T04:08:22;93665.50;;;-0.90;95.96
47636;BME280;33364;50.766;15.338;2024-02-26T04:10:48;93677.69;;;-0.91;96.01
47636;BME280;33364;50.766;15.338;2024-02-26T04:13:14;93679.22;;;-0.90;96.14
47636;BME280;33364;50.766;15.338;2024-02-26T04:15:40;93675.88;;;-0.90;96.03
47636;BME280;33364;50.766;15.338;2024-02-26T04:18:05;93672.25;;;-0.89;95.87
47636;BME280;33364;50.766;15.338;2024-02-26T04:20:32;93665.00;;;-0.87;96.09
47636;BME280;33364;50.766;15.338;2024-02-26T04:22:57;93666.88;;;-0.82;96.39
47636;BME280;33364;50.766;15.338;2024-02-26T04:25:23;93670.03;;;-0.75;96.09
47636;BME280;33364;50.766;15.338;2024-02-26T04:27:49;93666.38;;;-0.79;95.92
47636;BME280;33364;50.766;15.338;2024-02-26T04:30:15;93665.88;;;-0.76;95.90
47636;BME280;33364;50.766;15.338;2024-02-26T04:32:40;93656.06;;;-0.74;95.94
47636;BME280;33364;50.766;15.338;2024-02-26T04:35:06;93665.09;;;-0.77;95.79
47636;BME280;33364;50.766;15.338;2024-02-26T04:37:32;93659.91;;;-0.77;96.12
47636;BME280;33364;50.766;15.338;2024-02-26T04:39:58;93661.75;;;-0.72;96.08
47636;BME280;33364;50.766;15.338;2024-02-26T04:42:25;93662.06;;;-0.69;96.36
47636;BME280;33364;50.766;15.338;2024-02-26T04:44:51;93667.44;;;-0.75;96.13
47636;BME280;33364;50.766;15.338;2024-02-26T04:47:16;93663.88;;;-0.69;96.30
47636;BME280;33364;50.766;15.338;2024-02-26T04:49:42;93673.50;;;-0.65;96.72
47636;BME280;33364;50.766;15.338;2024-02-26T04:52:08;93660.34;;;-0.58;96.64
47636;BME280;33364;50.766;15.338;2024-02-26T04:54:34;93659.59;;;-0.54;96.88
47636;BME280;33364;50.766;15.338;2024-02-26T04:56:59;93657.00;;;-0.54;96.99
47636;BME280;33364;50.766;15.338;2024-02-26T04:59:25;93659.28;;;-0.57;97.00
47636;BME280;33364;50.766;15.338;2024-02-26T05:01:51;93649.41;;;-0.60;97.24
47636;BME280;33364;50.766;15.338;2024-02-26T05:04:18;93653.59;;;-0.59;97.43
47636;BME280;33364;50.766;15.338;2024-02-26T05:06:44;93659.00;;;-0.61;97.47
47636;BME280;33364;50.766;15.338;2024-02-26T05:09:10;93660.34;;;-0.58;97.50
47636;BME280;33364;50.766;15.338;2024-02-26T05:11:36;93653.63;;;-0.54;97.66
47636;BME280;33364;50.766;15.338;2024-02-26T05:14:02;93655.66;;;-0.56;97.54
47636;BME280;33364;50.766;15.338;2024-02-26T05:16:28;93646.03;;;-0.61;97.30
47636;BME280;33364;50.766;15.338;2024-02-26T05:18:55;93650.44;;;-0.61;97.07
47636;BME280;33364;50.766;15.338;2024-02-26T05:21:21;93648.47;;;-0.49;97.57
47636;BME280;33364;50.766;15.338;2024-02-26T05:23:47;93642.25;;;-0.48;97.65
47636;BME280;33364;50.766;15.338;2024-02-26T05:26:22;93643.59;;;-0.40;97.56
47636;BME280;33364;50.766;15.338;2024-02-26T05:28:48;93647.69;;;-0.50;97.30
47636;BME280;33364;50.766;15.338;2024-02-26T05:31:14;93661.44;;;-0.49;97.41
47636;BME280;33364;50.766;15.338;2024-02-26T05:33:41;93662.94;;;-0.58;97.03
47636;BME280;33364;50.766;15.338;2024-02-26T05:36:06;93656.97;;;-0.59;97.48
47636;BME280;33364;50.766;15.338;2024-02-26T05:38:32;93654.06;;;-0.62;97.76
47636;BME280;33364;50.766;15.338;2024-02-26T05:40:58;93653.53;;;-0.64;97.58
47636;BME280;33364;50.766;15.338;2024-02-26T05:43:25;93655.63;;;-0.61;97.55
47636;BME280;33364;50.766;15.338;2024-02-26T05:45:51;93661.84;;;-0.62;97.75
47636;BME280;33364;50.766;15.338;2024-02-26T05:48:17;93653.31;;;-0.58;98.11
47636;BME280;33364;50.766;15.338;2024-02-26T05:50:45;93650.72;;;-0.58;98.08
47636;BME280;33364;50.766;15.338;2024-02-26T05:53:11;93656.44;;;-0.56;98.18
47636;BME280;33364;50.766;15.338;2024-02-26T05:55:37;93659.59;;;-0.54;97.85
47636;BME280;33364;50.766;15.338;2024-02-26T05:58:03;93659.34;;;-0.47;98.35
47636;BME280;33364;50.766;15.338;2024-02-26T06:00:29;93667.09;;;-0.52;98.12
47636;BME280;33364;50.766;15.338;2024-02-26T06:02:55;93674.84;;;-0.57;98.10
47636;BME280;33364;50.766;15.338;2024-02-26T06:05:21;93668.59;;;-0.61;97.76
47636;BME280;33364;50.766;15.338;2024-02-26T06:07:47;93679.66;;;-0.71;97.85
47636;BME280;33364;50.766;15.338;2024-02-26T06:10:12;93684.25;;;-0.78;97.43
47636;BME280;33364;50.766;15.338;2024-02-26T06:12:39;93688.41;;;-0.77;97.51
47636;BME280;33364;50.766;15.338;2024-02-26T06:15:06;93688.19;;;-0.75;97.78
47636;BME280;33364;50.766;15.338;2024-02-26T06:17:33;93691.88;;;-0.66;98.13
47636;BME280;33364;50.766;15.338;2024-02-26T06:19:59;93694.50;;;-0.61;98.28
47636;BME280;33364;50.766;15.338;2024-02-26T06:22:26;93697.94;;;-0.56;98.24
47636;BME280;33364;50.766;15.338;2024-02-26T06:24:51;93696.66;;;-0.53;98.03
47636;BME280;33364;50.766;15.338;2024-02-26T06:27:17;93698.22;;;-0.52;98.13
47636;BME280;33364;50.766;15.338;2024-02-26T06:29:43;93695.13;;;-0.49;98.03
47636;BME280;33364;50.766;15.338;2024-02-26T06:32:09;93700.41;;;-0.39;98.36
47636;BME280;33364;50.766;15.338;2024-02-26T06:34:35;93707.19;;;-0.33;98.50
47636;BME280;33364;50.766;15.338;2024-02-26T06:37:01;93706.19;;;-0.27;98.54
47636;BME280;33364;50.766;15.338;2024-02-26T06:39:26;93711.47;;;-0.17;98.39
47636;BME280;33364;50.766;15.338;2024-02-26T06:41:52;93720.31;;;-0.13;98.83
47636;BME280;33364;50.766;15.338;2024-02-26T06:44:25;93713.09;;;-0.06;98.88
47636;BME280;33364;50.766;15.338;2024-02-26T06:46:51;93713.84;;;-0.05;98.82
47636;BME280;33364;50.766;15.338;2024-02-26T06:49:17;93713.63;;;0.02;99.29
47636;BME280;33364;50.766;15.338;2024-02-26T06:51:43;93714.69;;;0.06;99.10
47636;BME280;33364;50.766;15.338;2024-02-26T06:54:08;93713.97;;;0.10;99.31
47636;BME280;33364;50.766;15.338;2024-02-26T06:56:35;93711.13;;;0.17;99.37
47636;BME280;33364;50.766;15.338;2024-02-26T06:59:01;93715.56;;;0.21;99.47
47636;BME280;33364;50.766;15.338;2024-02-26T07:01:26;93717.44;;;0.26;99.72
47636;BME280;33364;50.766;15.338;2024-02-26T07:03:52;93714.31;;;0.29;99.56
47636;BME280;33364;50.766;15.338;2024-02-26T07:06:18;93716.44;;;0.37;99.90
47636;BME280;33364;50.766;15.338;2024-02-26T07:08:44;93718.00;;;0.43;99.65
47636;BME280;33364;50.766;15.338;2024-02-26T07:11:10;93713.34;;;0.45;99.67
47636;BME280;33364;50.766;15.338;2024-02-26T07:13:36;93719.59;;;0.49;99.58
47636;BME280;33364;50.766;15.338;2024-02-26T07:16:02;93716.53;;;0.52;99.66
47636;BME280;33364;50.766;15.338;2024-02-26T07:18:28;93717.31;;;0.58;100.00
47636;BME280;33364;50.766;15.338;2024-02-26T07:20:54;93719.16;;;0.62;100.00
47636;BME280;33364;50.766;15.338;2024-02-26T07:23:20;93716.81;;;0.66;100.00
47636;BME280;33364;50.766;15.338;2024-02-26T07:25:45;93709.28;;;0.69;100.00
47636;BME280;33364;50.766;15.338;2024-02-26T07:28:14;93712.19;;;0.78;100.00
47636;BME280;33364;50.766;15.338;2024-02-26T07:30:40;93711.44;;;0.82;100.00
47636;BME280;33364;50.766;15.338;2024-02-26T07:33:06;93706.78;;;0.90;100.00
47636;BME280;33364;50.766;15.338;2024-02-26T07:35:32;93707.06;;;0.98;100.00
47636;BME280;33364;50.766;15.338;2024-02-26T07:37:59;93702.41;;;1.15;100.00
47636;BME280;33364;50.766;15.338;2024-02-26T07:40:24;93700.63;;;1.36;100.00
47636;BME280;33364;50.766;15.338;2024-02-26T07:42:51;93706.63;;;1.52;100.00
47636;BME280;33364;50.766;15.338;2024-02-26T07:45:16;93712.59;;;1.78;100.00
47636;BME280;33364;50.766;15.338;2024-02-26T07:47:46;93709.97;;;2.03;100.00
47636;BME280;33364;50.766;15.338;2024-02-26T07:50:12;93702.66;;;2.25;100.00
47636;BME280;33364;50.766;15.338;2024-02-26T07:52:38;93696.13;;;2.28;100.00
47636;BME280;33364;50.766;15.338;2024-02-26T07:55:04;93696.66;;;2.30;100.00
47636;BME280;33364;50.766;15.338;2024-02-26T07:57:32;93683.28;;;2.51;100.00
47636;BME280;33364;50.766;15.338;2024-02-26T07:59:59;93679.41;;;3.03;100.00
47636;BME280;33364;50.766;15.338;2024-02-26T08:02:25;93692.63;;;3.22;100.00
47636;BME280;33364;50.766;15.338;2024-02-26T08:04:51;93692.94;;;3.54;100.00
47636;BME280;33364;50.766;15.338;2024-02-26T08:07:17;93690.03;;;3.90;100.00
47636;BME280;33364;50.766;15.338;2024-02-26T08:09:42;93690.13;;;3.79;98.56
47636;BME280;33364;50.766;15.338;2024-02-26T08:12:08;93695.78;;;3.87;97.65
47636;BME280;33364;50.766;15.338;2024-02-26T08:14:34;93699.66;;;3.94;96.93
47636;BME280;33364;50.766;15.338;2024-02-26T08:16:59;93702.97;;;4.29;94.28
47636;BME280;33364;50.766;15.338;2024-02-26T08:19:26;93702.38;;;4.84;93.11
47636;BME280;33364;50.766;15.338;2024-02-26T08:21:52;93700.44;;;5.14;92.93
47636;BME280;33364;50.766;15.338;2024-02-26T08:24:18;93696.25;;;5.50;91.18
47636;BME280;33364;50.766;15.338;2024-02-26T08:26:44;93708.22;;;5.56;89.18
47636;BME280;33364;50.766;15.338;2024-02-26T08:29:10;93707.91;;;5.76;87.91
47636;BME280;33364;50.766;15.338;2024-02-26T08:31:36;93704.16;;;6.47;87.07
47636;BME280;33364;50.766;15.338;2024-02-26T08:34:03;93710.56;;;6.82;82.42
47636;BME280;33364;50.766;15.338;2024-02-26T08:36:33;93711.25;;;6.88;78.40
47636;BME280;33364;50.766;15.338;2024-02-26T08:39:00;93705.16;;;6.92;77.80
47636;BME280;33364;50.766;15.338;2024-02-26T08:41:26;93704.81;;;7.35;76.53
47636;BME280;33364;50.766;15.338;2024-02-26T08:43:51;93706.25;;;7.77;76.16
47636;BME280;33364;50.766;15.338;2024-02-26T08:46:17;93705.63;;;8.02;74.07
47636;BME280;33364;50.766;15.338;2024-02-26T08:48:43;93704.84;;;8.01;73.07
47636;BME280;33364;50.766;15.338;2024-02-26T08:51:09;93707.00;;;8.22;70.60
47636;BME280;33364;50.766;15.338;2024-02-26T08:53:38;93710.53;;;8.17;70.64
47636;BME280;33364;50.766;15.338;2024-02-26T08:56:05;93710.88;;;8.24;69.36
47636;BME280;33364;50.766;15.338;2024-02-26T08:58:31;93714.66;;;7.87;69.58
47636;BME280;33364;50.766;15.338;2024-02-26T09:00:57;93713.03;;;8.00;68.95
47636;BME280;33364;50.766;15.338;2024-02-26T09:03:23;93713.97;;;8.26;69.54
47636;BME280;33364;50.766;15.338;2024-02-26T09:05:49;93725.22;;;8.18;69.11
47636;BME280;33364;50.766;15.338;2024-02-26T09:08:15;93718.13;;;8.72;68.77
47636;BME280;33364;50.766;15.338;2024-02-26T09:10:41;93710.09;;;9.33;69.08
47636;BME280;33364;50.766;15.338;2024-02-26T09:13:07;93703.06;;;8.64;65.87
47636;BME280;33364;50.766;15.338;2024-02-26T09:15:33;93704.31;;;8.66;67.80
47636;BME280;33364;50.766;15.338;2024-02-26T09:17:59;93713.31;;;9.22;66.80
47636;BME280;33364;50.766;15.338;2024-02-26T09:20:25;93714.16;;;9.74;68.60
47636;BME280;33364;50.766;15.338;2024-02-26T09:22:51;93718.66;;;9.56;64.46
47636;BME280;33364;50.766;15.338;2024-02-26T09:25:17;93723.28;;;9.33;66.04
47636;BME280;33364;50.766;15.338;2024-02-26T09:27:43;93712.59;;;9.47;65.62
47636;BME280;33364;50.766;15.338;2024-02-26T09:30:10;93718.44;;;9.18;64.50
47636;BME280;33364;50.766;15.338;2024-02-26T09:32:37;93719.50;;;9.09;65.42
47636;BME280;33364;50.766;15.338;2024-02-26T09:35:03;93718.72;;;8.69;67.99
47636;BME280;33364;50.766;15.338;2024-02-26T09:37:28;93719.88;;;8.85;67.86
47636;BME280;33364;50.766;15.338;2024-02-26T09:39:54;93724.28;;;9.15;66.98
47636;BME280;33364;50.766;15.338;2024-02-26T09:42:20;93713.41;;;9.00;67.67
47636;BME280;33364;50.766;15.338;2024-02-26T09:44:49;93725.56;;;8.47;67.81
47636;BME280;33364;50.766;15.338;2024-02-26T09:47:17;93713.41;;;9.00;67.39
47636;BME280;33364;50.766;15.338;2024-02-26T09:49:43;93720.00;;;9.37;66.72
47636;BME280;33364;50.766;15.338;2024-02-26T09:52:09;93722.78;;;9.23;66.26
47636;BME280;33364;50.766;15.338;2024-02-26T09:54:35;93713.22;;;9.36;64.77
47636;BME280;33364;50.766;15.338;2024-02-26T09:57:03;93713.97;;;9.36;65.02
47636;BME280;33364;50.766;15.338;2024-02-26T09:59:41;93709.69;;;8.92;64.98
47636;BME280;33364;50.766;15.338;2024-02-26T10:02:14;93709.41;;;9.02;64.87
47636;BME280;33364;50.766;15.338;2024-02-26T10:04:42;93702.72;;;9.05;64.13
47636;BME280;33364;50.766;15.338;2024-02-26T10:07:12;93705.75;;;9.38;64.97
47636;BME280;33364;50.766;15.338;2024-02-26T10:09:39;93711.50;;;9.48;63.88
47636;BME280;33364;50.766;15.338;2024-02-26T10:12:07;93718.97;;;9.63;63.43
47636;BME280;33364;50.766;15.338;2024-02-26T10:14:34;93711.06;;;9.89;63.30
47636;BME280;33364;50.766;15.338;2024-02-26T10:17:00;93719.31;;;9.05;62.38
47636;BME280;33364;50.766;15.338;2024-02-26T10:19:28;93716.00;;;9.30;63.67
47636;BME280;33364;50.766;15.338;2024-02-26T10:21:56;93718.34;;;9.41;62.87
47636;BME280;33364;50.766;15.338;2024-02-26T10:24:24;93720.66;;;9.68;63.28
47636;BME280;33364;50.766;15.338;2024-02-26T10:26:51;93714.59;;;9.33;63.58
47636;BME280;33364;50.766;15.338;2024-02-26T10:29:18;93723.84;;;9.13;64.22
47636;BME280;33364;50.766;15.338;2024-02-26T10:31:44;93708.63;;;9.02;64.37
47636;BME280;33364;50.766;15.338;2024-02-26T10:34:10;93713.84;;;9.50;63.69
47636;BME280;33364;50.766;15.338;2024-02-26T10:36:36;93717.88;;;9.56;63.90
47636;BME280;33364;50.766;15.338;2024-02-26T10:39:05;93713.53;;;9.94;63.95
47636;BME280;33364;50.766;15.338;2024-02-26T10:41:33;93714.91;;;9.57;61.41
47636;BME280;33364;50.766;15.338;2024-02-26T10:43:58;93720.38;;;9.61;62.02
47636;BME280;33364;50.766;15.338;2024-02-26T10:46:25;93712.75;;;9.59;63.03
47636;BME280;33364;50.766;15.338;2024-02-26T10:48:52;93713.22;;;9.53;63.11
47636;BME280;33364;50.766;15.338;2024-02-26T10:51:28;93718.75;;;9.25;62.27
47636;BME280;33364;50.766;15.338;2024-02-26T10:53:58;93718.22;;;8.98;63.28
47636;BME280;33364;50.766;15.338;2024-02-26T10:56:28;93723.75;;;8.87;63.82
47636;BME280;33364;50.766;15.338;2024-02-26T10:58:58;93730.53;;;8.80;65.07
47636;BME280;33364;50.766;15.338;2024-02-26T11:01:25;93725.31;;;8.58;65.52
47636;BME280;33364;50.766;15.338;2024-02-26T11:03:55;93729.47;;;8.50;66.43
47636;BME280;33364;50.766;15.338;2024-02-26T11:06:21;93736.81;;;8.17;67.13
47636;BME280;33364;50.766;15.338;2024-02-26T11:08:50;93736.09;;;7.81;68.40
47636;BME280;33364;50.766;15.338;2024-02-26T11:11:17;93720.16;;;7.99;67.56
47636;BME280;33364;50.766;15.338;2024-02-26T11:13:48;93718.06;;;8.10;67.90
47636;BME280;33364;50.766;15.338;2024-02-26T11:16:23;93713.34;;;8.43;67.66
47636;BME280;33364;50.766;15.338;2024-02-26T11:18:49;93715.91;;;8.65;67.29
47636;BME280;33364;50.766;15.338;2024-02-26T11:21:21;93713.81;;;8.76;65.27
47636;BME280;33364;50.766;15.338;2024-02-26T11:24:05;93727.34;;;8.92;65.11
47636;BME280;33364;50.766;15.338;2024-02-26T11:26:35;93725.16;;;8.94;65.35
47636;BME280;33364;50.766;15.338;2024-02-26T11:29:02;93723.66;;;9.01;63.92
47636;BME280;33364;50.766;15.338;2024-02-26T11:31:29;93724.91;;;9.04;63.78
47636;BME280;33364;50.766;15.338;2024-02-26T11:33:55;93730.41;;;8.94;63.84
47636;BME280;33364;50.766;15.338;2024-02-26T11:36:23;93720.16;;;8.44;64.57
47636;BME280;33364;50.766;15.338;2024-02-26T11:38:49;93723.66;;;9.01;63.44
47636;BME280;33364;50.766;15.338;2024-02-26T11:41:18;93719.06;;;9.32;64.00
47636;BME280;33364;50.766;15.338;2024-02-26T11:43:58;93725.72;;;9.21;63.15
47636;BME280;33364;50.766;15.338;2024-02-26T11:46:33;93727.06;;;9.02;63.54
47636;BME280;33364;50.766;15.338;2024-02-26T11:51:54;93732.63;;;9.00;64.62
47636;BME280;33364;50.766;15.338;2024-02-26T11:54:48;93731.69;;;8.96;64.18
47636;BME280;33364;50.766;15.338;2024-02-26T11:57:39;93727.50;;;8.56;66.01
47636;BME280;33364;50.766;15.338;2024-02-26T12:00:15;93723.84;;;8.74;65.55
47636;BME280;33364;50.766;15.338;2024-02-26T12:02:52;93721.88;;;8.48;66.36
47636;BME280;33364;50.766;15.338;2024-02-26T12:05:24;93723.00;;;8.56;67.00
47636;BME280;33364;50.766;15.338;2024-02-26T12:07:59;93721.47;;;8.64;66.72
47636;BME280;33364;50.766;15.338;2024-02-26T12:12:59;93735.78;;;8.80;65.94
47636;BME280;33364;50.766;15.338;2024-02-26T12:15:31;93727.28;;;8.83;65.29
47636;BME280;33364;50.766;15.338;2024-02-26T12:18:00;93724.72;;;9.00;65.48
47636;BME280;33364;50.766;15.338;2024-02-26T12:20:26;93721.78;;;8.93;65.79
47636;BME280;33364;50.766;15.338;2024-02-26T12:22:53;93722.28;;;8.73;65.26
47636;BME280;33364;50.766;15.338;2024-02-26T12:25:26;93729.81;;;8.97;65.10
47636;BME280;33364;50.766;15.338;2024-02-26T12:27:55;93728.59;;;8.63;64.29
47636;BME280;33364;50.766;15.338;2024-02-26T12:30:22;93733.47;;;8.47;61.49
47636;BME280;33364;50.766;15.338;2024-02-26T12:32:49;93732.38;;;8.26;64.17
47636;BME280;33364;50.766;15.338;2024-02-26T12:35:15;93732.63;;;8.30;64.01
47636;BME280;33364;50.766;15.338;2024-02-26T12:37:42;93733.78;;;8.24;65.02
47636;BME280;33364;50.766;15.338;2024-02-26T12:40:09;93738.72;;;8.25;64.83
47636;BME280;33364;50.766;15.338;2024-02-26T12:42:36;93733.47;;;8.25;63.81
47636;BME280;33364;50.766;15.338;2024-02-26T12:45:09;93738.97;;;8.15;62.70
47636;BME280;33364;50.766;15.338;2024-02-26T12:47:40;93740.94;;;8.10;62.73
47636;BME280;33364;50.766;15.338;2024-02-26T12:50:07;93745.19;;;8.19;62.71
47636;BME280;33364;50.766;15.338;2024-02-26T12:52:35;93743.41;;;8.06;62.51
47636;BME280;33364;50.766;15.338;2024-02-26T12:55:05;93745.19;;;7.97;63.34
47636;BME280;33364;50.766;15.338;2024-02-26T12:57:38;93742.31;;;8.07;63.80
47636;BME280;33364;50.766;15.338;2024-02-26T13:00:05;93739.22;;;8.05;64.18